createdAt,value
2019-04-20T00:00:37.193Z,12.17
2019-04-20T00:03:07.547Z,12.67
2019-04-20T00:05:37.312Z,12.63
2019-04-20T00:08:14.974Z,12.87
2019-04-20T00:10:47.598Z,12.67
2019-04-20T00:13:21.575Z,12.73
2019-04-20T00:15:40.883Z,13.77
2019-04-20T00:18:12.204Z,14.27
2019-04-20T00:20:43.793Z,13.37
2019-04-20T00:23:22.629Z,14.23
2019-04-20T00:26:14.178Z,13.70
2019-04-20T00:28:50.852Z,13.00
2019-04-20T00:31:24.852Z,13.33
2019-04-20T00:33:50.643Z,14.00
2019-04-20T00:36:10.039Z,13.77
2019-04-20T00:38:47.778Z,13.17
2019-04-20T00:41:15.115Z,13.10
2019-04-20T00:43:43.834Z,13.13
2019-04-20T00:46:23.106Z,13.30
2019-04-20T00:48:53.645Z,12.73
2019-04-20T00:51:31.419Z,12.70
2019-04-20T00:53:51.249Z,12.87
2019-04-20T00:56:18.328Z,12.30
2019-04-20T00:59:04.238Z,13.20
2019-04-20T01:01:44.170Z,12.17
2019-04-20T01:04:10.787Z,13.27
2019-04-20T01:06:42.359Z,13.23
2019-04-20T01:09:01.338Z,13.13
2019-04-20T01:11:36.740Z,13.20
2019-04-20T01:14:05.977Z,12.50
2019-04-20T01:16:41.774Z,12.83
2019-04-20T01:19:04.620Z,13.10
2019-04-20T01:21:35.482Z,11.97
2019-04-20T01:24:08.303Z,11.23
2019-04-20T01:26:44.232Z,11.70
2019-04-20T01:29:20.530Z,11.23
2019-04-20T01:31:56.011Z,11.70
2019-04-20T01:34:26.521Z,12.40
2019-04-20T01:36:56.358Z,11.00
2019-04-20T01:39:25.252Z,11.40
2019-04-20T01:41:45.379Z,11.40
2019-04-20T01:44:18.501Z,12.00
2019-04-20T01:46:51.948Z,11.17
2019-04-20T01:49:22.280Z,11.80
2019-04-20T01:51:57.779Z,11.70
2019-04-20T01:54:38.639Z,10.83
2019-04-20T01:57:04.760Z,11.07
2019-04-20T01:59:44.063Z,10.90
2019-04-20T02:02:11.564Z,11.50
2019-04-20T02:04:46.047Z,11.00
2019-04-20T02:07:13.547Z,11.03
2019-04-20T02:09:49.917Z,11.53
2019-04-20T02:12:21.891Z,10.97
2019-04-20T02:14:52.445Z,10.80
2019-04-20T02:17:27.422Z,11.13
2019-04-20T02:20:06.579Z,11.13
2019-04-20T02:22:40.805Z,12.10
2019-04-20T02:24:51.032Z,11.63
2019-04-20T02:27:31.354Z,11.90
2019-04-20T02:30:21.890Z,11.80
2019-04-20T02:33:03.655Z,11.47
2019-04-20T02:35:49.220Z,11.23
2019-04-20T02:40:47.495Z,11.50
2019-04-20T02:48:13.470Z,10.70
2019-04-20T02:50:49.596Z,11.50
2019-04-20T02:53:20.457Z,11.47
2019-04-20T02:56:09.045Z,10.73
2019-04-20T02:58:15.285Z,10.70
2019-04-20T03:01:02.305Z,10.73
2019-04-20T03:03:03.213Z,11.43
2019-04-20T03:05:33.137Z,11.47
2019-04-20T03:08:15.400Z,10.83
2019-04-20T03:10:52.649Z,11.43
2019-04-20T03:13:18.684Z,11.33
2019-04-20T03:15:51.966Z,11.63
2019-04-20T03:18:22.330Z,11.10
2019-04-20T03:20:56.458Z,11.53
2019-04-20T03:26:12.522Z,11.50
2019-04-20T03:28:56.764Z,11.80
2019-04-20T03:36:53.168Z,13.03
2019-04-20T03:39:19.060Z,13.20
2019-04-20T03:41:38.459Z,13.27
2019-04-20T03:44:09.955Z,14.00
2019-04-20T03:46:43.459Z,13.53
2019-04-20T03:49:27.991Z,13.27
2019-04-20T03:51:59.003Z,12.93
2019-04-20T03:54:38.611Z,12.63
2019-04-20T03:57:20.960Z,12.97
2019-04-20T03:59:54.838Z,12.67
2019-04-20T04:02:37.683Z,12.40
2019-04-20T04:05:08.762Z,12.47
2019-04-20T04:07:32.382Z,11.93
2019-04-20T04:10:09.821Z,12.07
2019-04-20T04:13:03.029Z,12.83
2019-04-20T04:15:36.212Z,12.80
2019-04-20T04:18:13.607Z,12.60
2019-04-20T04:21:03.885Z,12.73
2019-04-20T04:23:45.922Z,12.97
2019-04-20T04:26:20.399Z,12.30
2019-04-20T04:28:50.210Z,13.03
2019-04-20T04:31:20.465Z,13.27
2019-04-20T04:36:21.292Z,12.73
2019-04-20T04:38:57.067Z,12.73
2019-04-20T04:41:35.505Z,12.43
2019-04-20T04:44:00.686Z,12.30
2019-04-20T04:46:14.485Z,12.13
2019-04-20T04:48:47.546Z,12.17
2019-04-20T04:51:22.144Z,11.87
2019-04-20T04:53:56.917Z,12.67
2019-04-20T04:56:21.438Z,11.57
2019-04-20T04:58:49.599Z,11.63
2019-04-20T05:01:24.871Z,11.67
2019-04-20T05:04:18.424Z,10.70
2019-04-20T05:06:35.501Z,10.93
2019-04-20T05:08:58.480Z,11.37
2019-04-20T05:11:25.813Z,10.73
2019-04-20T05:14:03.341Z,11.00
2019-04-20T05:16:45.067Z,10.40
2019-04-20T05:19:18.947Z,10.80
2019-04-20T05:21:58.721Z,10.47
2019-04-20T05:24:27.943Z,10.63
2019-04-20T05:27:07.277Z,10.47
2019-04-20T05:29:21.539Z,10.37
2019-04-20T05:31:50.959Z,10.40
2019-04-20T05:34:38.497Z,10.30
2019-04-20T05:37:15.068Z,9.60
2019-04-20T05:39:41.443Z,10.07
2019-04-20T05:42:13.270Z,10.00
2019-04-20T05:44:48.622Z,10.07
2019-04-20T05:47:13.661Z,10.17
2019-04-20T05:49:42.906Z,10.00
2019-04-20T05:52:31.314Z,10.13
2019-04-20T05:54:52.368Z,9.30
2019-04-20T05:57:25.028Z,9.77
2019-04-20T05:59:57.181Z,9.40
2019-04-20T06:02:25.037Z,9.27
2019-04-20T06:07:26.677Z,8.73
2019-04-20T06:09:59.964Z,8.70
2019-04-20T06:12:31.477Z,8.90
2019-04-20T06:14:55.911Z,9.10
2019-04-20T06:17:31.355Z,8.83
2019-04-20T06:20:06.169Z,8.87
2019-04-20T06:22:42.780Z,8.43
2019-04-20T06:25:33.381Z,8.63
2019-04-20T06:27:49.208Z,8.70
2019-04-20T06:30:13.733Z,8.17
2019-04-20T06:33:45.923Z,8.60
2019-04-20T06:38:45.588Z,8.23
2019-04-20T06:41:09.978Z,8.77
2019-04-20T06:43:31.480Z,8.63
2019-04-20T06:46:10.356Z,8.37
2019-04-20T06:48:51.367Z,8.43
2019-04-20T06:51:45.382Z,8.23
2019-04-20T06:54:28.700Z,7.90
2019-04-20T06:57:05.774Z,7.90
2019-04-20T06:59:42.198Z,8.20
2019-04-20T07:02:11.887Z,8.70
2019-04-20T07:09:52.955Z,8.40
2019-04-20T07:12:13.076Z,8.57
2019-04-20T07:14:39.087Z,8.63
2019-04-20T07:17:26.965Z,8.20
2019-04-20T07:20:01.388Z,8.27
2019-04-20T07:22:39.459Z,8.43
2019-04-20T07:27:36.584Z,8.37
2019-04-20T07:30:08.089Z,7.90
2019-04-20T07:32:48.447Z,7.57
2019-04-20T07:35:08.720Z,8.47
2019-04-20T07:40:17.559Z,7.73
2019-04-20T07:42:46.775Z,7.90
2019-04-20T07:45:21.917Z,8.07
2019-04-20T07:50:13.581Z,7.40
2019-04-20T07:52:43.850Z,7.50
2019-04-20T07:57:52.604Z,7.33
2019-04-20T08:00:35.606Z,6.80
2019-04-20T08:03:22.051Z,7.27
2019-04-20T08:05:44.305Z,6.93
2019-04-20T08:08:22.953Z,6.57
2019-04-20T08:10:54.419Z,6.80
2019-04-20T08:13:42.134Z,7.20
2019-04-20T08:16:00.656Z,7.40
2019-04-20T08:18:38.656Z,8.63
2019-04-20T08:21:17.921Z,7.70
2019-04-20T08:23:31.703Z,7.83
2019-04-20T08:25:53.234Z,7.13
2019-04-20T08:28:23.254Z,7.33
2019-04-20T08:31:13.148Z,7.13
2019-04-20T08:34:03.985Z,7.57
2019-04-20T08:36:22.898Z,6.73
2019-04-20T08:41:20.553Z,7.87
2019-04-20T08:43:59.051Z,7.63
2019-04-20T08:46:25.146Z,7.33
2019-04-20T08:49:03.306Z,7.57
2019-04-20T08:51:38.634Z,7.90
2019-04-20T08:54:02.248Z,7.77
2019-04-20T08:56:27.156Z,8.30
2019-04-20T08:58:46.103Z,7.73
2019-04-20T09:01:24.032Z,7.80
2019-04-20T09:03:58.892Z,8.13
2019-04-20T09:06:32.282Z,8.40
2019-04-20T09:09:10.684Z,8.30
2019-04-20T09:11:46.527Z,8.27
2019-04-20T09:13:58.390Z,8.80
2019-04-20T09:16:30.561Z,8.63
2019-04-20T09:19:04.684Z,8.60
2019-04-20T09:21:40.278Z,8.83
2019-04-20T09:24:30.292Z,8.00
2019-04-20T09:26:47.774Z,8.67
2019-04-20T09:29:14.892Z,8.20
2019-04-20T09:31:47.206Z,8.30
2019-04-20T09:34:51.326Z,8.00
2019-04-20T09:37:27.769Z,8.77
2019-04-20T09:39:52.864Z,7.90
2019-04-20T09:42:11.512Z,8.78
2019-04-20T09:44:46.043Z,8.40
2019-04-20T09:47:12.464Z,9.05
2019-04-20T09:49:56.769Z,9.90
2019-04-20T09:52:29.108Z,10.30
2019-04-20T09:55:04.329Z,10.05
2019-04-20T09:57:33.290Z,9.65
2019-04-20T10:00:05.657Z,9.88
2019-04-20T10:02:25.003Z,10.00
2019-04-20T10:04:51.463Z,9.50
2019-04-20T10:07:24.014Z,9.45
2019-04-20T10:09:53.741Z,9.80
2019-04-20T10:12:24.097Z,9.98
2019-04-20T10:14:57.543Z,10.15
2019-04-20T10:17:27.157Z,10.37
2019-04-20T10:19:56.056Z,9.80
2019-04-20T10:22:26.742Z,10.05
2019-04-20T10:24:57.161Z,9.38
2019-04-20T10:27:26.923Z,10.05
2019-04-20T10:29:58.387Z,9.65
2019-04-20T10:32:34.194Z,9.40
2019-04-20T10:34:58.999Z,9.63
2019-04-20T10:37:31.544Z,10.03
2019-04-20T10:40:02.762Z,10.20
2019-04-20T10:42:32.521Z,9.55
2019-04-20T10:45:02.892Z,10.05
2019-04-20T10:47:33.335Z,10.45
2019-04-20T10:50:04.937Z,10.00
2019-04-20T10:52:35.961Z,9.93
2019-04-20T10:55:06.656Z,10.50
2019-04-20T10:57:37.520Z,9.58
2019-04-20T11:00:09.856Z,10.68
2019-04-20T11:02:42.530Z,10.68
2019-04-20T11:05:12.669Z,10.90
2019-04-20T11:07:42.744Z,10.10
2019-04-20T11:10:18.777Z,10.48
2019-04-20T11:12:44.289Z,10.72
2019-04-20T11:15:14.621Z,11.08
2019-04-20T11:17:45.655Z,10.65
2019-04-20T11:20:15.417Z,9.40
2019-04-20T11:22:46.281Z,9.88
2019-04-20T11:25:16.561Z,9.65
2019-04-20T11:27:46.249Z,10.13
2019-04-20T11:30:16.185Z,11.80
2019-04-20T11:32:48.423Z,10.70
2019-04-20T11:35:26.893Z,11.60
2019-04-20T11:37:49.382Z,12.50
2019-04-20T11:40:19.223Z,14.20
2019-04-20T11:42:49.985Z,14.40
2019-04-20T11:45:20.574Z,13.90
2019-04-20T11:47:51.590Z,13.28
2019-04-20T11:50:21.897Z,13.25
2019-04-20T11:52:52.997Z,13.58
2019-04-20T11:55:22.777Z,12.77
2019-04-20T11:57:52.348Z,12.63
2019-04-20T12:00:25.732Z,14.15
2019-04-20T12:03:16.275Z,14.10
2019-04-20T12:05:45.994Z,13.90
2019-04-20T12:08:11.341Z,15.95
2019-04-20T12:10:43.829Z,14.55
2019-04-20T12:13:14.593Z,14.73
2019-04-20T12:15:43.707Z,14.17
2019-04-20T12:18:13.737Z,14.03
2019-04-20T12:20:44.880Z,15.38
2019-04-20T12:23:15.917Z,12.47
2019-04-20T12:25:46.272Z,11.90
2019-04-20T12:28:15.901Z,12.97
2019-04-20T12:30:45.965Z,12.37
2019-04-20T12:33:17.802Z,12.35
2019-04-20T12:35:47.994Z,12.80
2019-04-20T12:38:19.015Z,12.15
2019-04-20T12:40:48.810Z,12.10
2019-04-20T12:43:20.336Z,11.93
2019-04-20T12:45:50.177Z,11.00
2019-04-20T12:48:19.824Z,11.20
2019-04-20T12:50:49.930Z,10.50
2019-04-20T12:53:20.460Z,10.53
2019-04-20T12:55:50.752Z,9.43
2019-04-20T12:58:20.881Z,10.83
2019-04-20T13:00:52.464Z,10.30
2019-04-20T13:03:23.580Z,10.50
2019-04-20T13:05:54.226Z,10.67
2019-04-20T13:08:31.817Z,9.77
2019-04-20T13:10:58.821Z,9.00
2019-04-20T13:13:34.561Z,9.30
2019-04-20T13:16:22.557Z,9.70
2019-04-20T13:18:55.274Z,8.87
2019-04-20T13:21:25.087Z,9.05
2019-04-20T13:23:56.495Z,9.57
2019-04-20T13:26:27.042Z,9.00
2019-04-20T13:28:57.206Z,8.83
2019-04-20T13:31:26.715Z,8.90
2019-04-20T13:33:59.133Z,9.00
2019-04-20T13:36:30.279Z,8.90
2019-04-20T13:38:59.934Z,8.80
2019-04-20T13:41:29.792Z,9.80
2019-04-20T13:44:01.363Z,10.07
2019-04-20T13:46:31.278Z,8.80
2019-04-20T13:49:01.061Z,9.63
2019-04-20T13:51:30.973Z,9.63
2019-04-20T13:54:01.750Z,10.27
2019-04-20T13:56:32.253Z,9.90
2019-04-20T13:59:07.770Z,9.50
2019-04-20T14:01:46.428Z,9.37
2019-04-20T14:04:23.600Z,9.23
2019-04-20T14:06:55.705Z,8.60
2019-04-20T14:09:25.972Z,8.87
2019-04-20T14:11:57.120Z,9.10
2019-04-20T14:14:28.982Z,8.60
2019-04-20T14:16:59.073Z,8.60
2019-04-20T14:19:29.310Z,8.23
2019-04-20T14:21:59.791Z,8.33
2019-04-20T14:24:29.248Z,8.13
2019-04-20T14:27:01.199Z,7.87
2019-04-20T14:29:31.103Z,7.97
2019-04-20T14:32:03.388Z,8.10
2019-04-20T14:34:33.024Z,7.73
2019-04-20T14:37:02.688Z,7.70
2019-04-20T14:39:34.198Z,7.83
2019-04-20T14:42:04.582Z,7.50
2019-04-20T14:44:34.227Z,8.23
2019-04-20T14:47:03.933Z,7.73
2019-04-20T14:49:34.591Z,8.83
2019-04-20T14:52:06.206Z,7.90
2019-04-20T14:54:37.204Z,7.70
2019-04-20T14:57:07.714Z,8.27
2019-04-20T14:59:38.939Z,8.10
2019-04-20T15:02:10.545Z,7.80
2019-04-20T15:04:54.877Z,8.10
2019-04-20T15:07:24.742Z,9.10
2019-04-20T15:09:55.096Z,9.10
2019-04-20T15:12:37.847Z,7.83
2019-04-20T15:14:58.774Z,8.70
2019-04-20T15:17:33.334Z,9.77
2019-04-20T15:20:05.652Z,10.03
2019-04-20T15:22:41.255Z,10.37
2019-04-20T15:25:11.704Z,12.10
2019-04-20T15:27:44.686Z,12.03
2019-04-20T15:30:14.026Z,12.17
2019-04-20T15:32:44.930Z,11.73
2019-04-20T15:35:19.201Z,12.90
2019-04-20T15:37:47.086Z,12.17
2019-04-20T15:40:17.382Z,11.83
2019-04-20T15:42:54.846Z,13.70
2019-04-20T15:45:19.041Z,14.13
2019-04-20T15:47:50.186Z,15.80
2019-04-20T15:50:20.245Z,15.93
2019-04-20T15:52:52.664Z,15.70
2019-04-20T15:55:27.467Z,15.70
2019-04-20T15:57:53.480Z,15.90
2019-04-20T16:00:24.484Z,15.40
2019-04-20T16:02:59.242Z,15.70
2019-04-20T16:05:40.884Z,16.40
2019-04-20T16:08:28.193Z,15.90
2019-04-20T16:10:59.265Z,17.57
2019-04-20T16:13:37.113Z,18.27
2019-04-20T16:16:01.499Z,18.40
2019-04-20T16:18:32.855Z,18.23
2019-04-20T16:21:08.003Z,17.50
2019-04-20T16:23:36.892Z,18.17
2019-04-20T16:26:27.038Z,17.27
2019-04-20T16:28:57.695Z,17.87
2019-04-20T16:31:28.711Z,16.27
2019-04-20T16:33:58.842Z,16.57
2019-04-20T16:36:28.592Z,17.17
2019-04-20T16:38:59.436Z,17.13
2019-04-20T16:41:30.505Z,18.50
2019-04-20T16:44:00.455Z,20.03
2019-04-20T16:46:30.214Z,23.80
2019-04-20T16:49:00.847Z,24.23
2019-04-20T16:51:31.148Z,24.83
2019-04-20T16:54:01.568Z,24.97
2019-04-20T16:56:31.148Z,25.93
2019-04-20T16:59:06.021Z,24.93
2019-04-20T17:01:31.856Z,24.13
2019-04-20T17:04:07.129Z,23.33
2019-04-20T17:06:34.207Z,22.27
2019-04-20T17:09:05.238Z,22.13
2019-04-20T17:11:36.075Z,22.20
2019-04-20T17:14:06.689Z,21.20
2019-04-20T17:16:37.542Z,23.33
2019-04-20T17:19:07.825Z,22.13
2019-04-20T17:21:37.459Z,21.30
2019-04-20T17:24:08.994Z,21.00
2019-04-20T17:26:50.673Z,21.50
2019-04-20T17:32:05.499Z,22.43
2019-04-20T17:34:47.030Z,20.60
2019-04-20T17:37:06.807Z,19.73
2019-04-20T17:39:54.022Z,21.83
2019-04-20T17:42:37.404Z,23.20
2019-04-20T17:45:00.788Z,23.87
2019-04-20T17:47:43.143Z,23.63
2019-04-20T17:50:12.853Z,23.93
2019-04-20T17:52:47.463Z,24.00
2019-04-20T17:55:17.792Z,22.47
2019-04-20T17:57:37.783Z,23.27
2019-04-20T18:00:15.196Z,22.10
2019-04-20T18:03:05.988Z,22.37
2019-04-20T18:05:57.057Z,22.40
2019-04-20T18:08:27.119Z,21.90
2019-04-20T18:10:50.769Z,21.77
2019-04-20T18:13:17.805Z,21.30
2019-04-20T18:15:57.503Z,20.93
2019-04-20T18:18:35.304Z,21.23
2019-04-20T18:21:08.593Z,21.60
2019-04-20T18:23:41.819Z,21.30
2019-04-20T18:26:35.743Z,22.03
2019-04-20T18:29:02.066Z,24.80
2019-04-20T18:31:15.349Z,25.13
2019-04-20T18:33:46.407Z,27.70
2019-04-20T18:36:23.619Z,29.00
2019-04-20T18:38:54.223Z,31.00
2019-04-20T18:41:31.790Z,32.60
2019-04-20T18:43:55.921Z,34.97
2019-04-20T18:46:39.678Z,36.33
2019-04-20T18:49:09.790Z,36.30
2019-04-20T18:51:25.965Z,37.60
2019-04-20T18:54:04.753Z,36.90
2019-04-20T18:56:33.040Z,36.20
2019-04-20T18:58:59.388Z,37.70
2019-04-20T19:01:31.958Z,37.83
2019-04-20T19:04:01.602Z,36.97
2019-04-20T19:06:31.834Z,38.67
2019-04-20T19:09:02.790Z,38.73
2019-04-20T19:11:37.530Z,38.90
2019-04-20T19:14:14.832Z,38.53
2019-04-20T19:16:53.819Z,38.70
2019-04-20T19:19:24.458Z,38.87
2019-04-20T19:21:45.967Z,39.17
2019-04-20T19:24:18.488Z,35.00
2019-04-20T19:26:51.512Z,35.80
2019-04-20T19:29:26.476Z,36.10
2019-04-20T19:32:23.848Z,36.57
2019-04-20T19:34:52.654Z,36.97
2019-04-20T19:37:23.214Z,37.60
2019-04-20T19:40:02.382Z,35.57
2019-04-20T19:42:31.898Z,35.33
2019-04-20T19:45:06.593Z,37.23
2019-04-20T19:47:41.334Z,34.50
2019-04-20T19:50:23.332Z,34.07
2019-04-20T19:53:09.122Z,33.90
2019-04-20T19:55:11.869Z,31.73
2019-04-20T19:57:42.433Z,30.67
2019-04-20T19:59:57.957Z,30.23
2019-04-20T20:02:27.676Z,29.63
2019-04-20T20:05:01.270Z,30.30
2019-04-20T20:07:37.480Z,30.57
2019-04-20T20:10:03.721Z,30.17
2019-04-20T20:12:31.512Z,32.50
2019-04-20T20:15:01.672Z,33.13
2019-04-20T20:17:48.389Z,33.87
2019-04-20T20:20:28.750Z,36.03
2019-04-20T20:22:41.101Z,36.87
2019-04-20T20:25:07.276Z,37.83
2019-04-20T20:27:47.571Z,42.47
2019-04-20T20:30:20.497Z,43.93
2019-04-20T20:32:56.560Z,45.53
2019-04-20T20:35:16.672Z,45.97
2019-04-20T20:37:51.658Z,41.83
2019-04-20T20:40:23.283Z,37.63
2019-04-20T20:42:56.549Z,37.70
2019-04-20T20:45:26.233Z,39.07
2019-04-20T20:48:05.015Z,40.67
2019-04-20T20:50:37.676Z,42.73
2019-04-20T20:53:00.837Z,43.67
2019-04-20T20:55:31.836Z,43.60
2019-04-20T20:58:00.666Z,40.40
2019-04-20T21:00:34.842Z,39.97
2019-04-20T21:03:01.832Z,38.83
2019-04-20T21:05:27.385Z,36.37
2019-04-20T21:07:57.503Z,35.53
2019-04-20T21:10:33.071Z,33.60
2019-04-20T21:13:01.842Z,33.00
2019-04-20T21:15:31.624Z,28.80
2019-04-20T21:18:20.778Z,29.33
2019-04-20T21:20:55.241Z,26.60
2019-04-20T21:23:17.495Z,28.63
2019-04-20T21:25:47.804Z,28.43
2019-04-20T21:28:13.081Z,28.33
2019-04-20T21:30:46.403Z,28.67
2019-04-20T21:33:14.994Z,30.10
2019-04-20T21:35:48.571Z,32.27
2019-04-20T21:38:18.531Z,31.90
2019-04-20T21:40:49.677Z,34.53
2019-04-20T21:43:20.659Z,34.57
2019-04-20T21:45:56.379Z,34.30
2019-04-20T21:48:40.548Z,34.90
2019-04-20T21:51:08.635Z,34.90
2019-04-20T21:53:28.478Z,34.93
2019-04-20T21:55:55.242Z,34.13
2019-04-20T21:58:30.243Z,34.30
2019-04-20T22:01:10.859Z,34.77
2019-04-20T22:03:27.938Z,36.67
2019-04-20T22:06:04.723Z,37.53
2019-04-20T22:08:39.141Z,38.30
2019-04-20T22:11:06.387Z,37.70
2019-04-20T22:13:40.268Z,37.93
2019-04-20T22:16:12.162Z,35.63
2019-04-20T22:18:54.291Z,36.03
2019-04-20T22:21:21.403Z,35.00
2019-04-20T22:23:59.752Z,32.97
2019-04-20T22:26:26.348Z,30.67
2019-04-20T22:28:46.220Z,31.07
2019-04-20T22:31:15.954Z,31.50
2019-04-20T22:33:47.287Z,29.50
2019-04-20T22:36:18.079Z,29.70
2019-04-20T22:39:07.458Z,28.73
2019-04-20T22:41:40.676Z,28.90
2019-04-20T22:44:16.515Z,29.13
2019-04-20T22:46:43.784Z,30.30
2019-04-20T22:49:35.119Z,29.80
2019-04-20T22:51:55.672Z,29.67
2019-04-20T22:54:34.044Z,30.90
2019-04-20T22:56:57.200Z,29.00
2019-04-20T22:59:22.861Z,30.17
2019-04-20T23:01:55.229Z,30.67
2019-04-20T23:04:21.978Z,30.10
2019-04-20T23:06:52.352Z,32.70
2019-04-20T23:09:22.810Z,30.53
2019-04-20T23:11:54.691Z,31.67
2019-04-20T23:14:24.604Z,31.13
2019-04-20T23:16:56.150Z,30.00
2019-04-20T23:19:35.708Z,27.83
2019-04-20T23:22:01.237Z,28.67
2019-04-20T23:24:29.144Z,27.90
2019-04-20T23:27:04.406Z,27.47
2019-04-20T23:29:37.715Z,24.70
2019-04-20T23:32:08.350Z,24.47
2019-04-20T23:34:39.004Z,24.53
2019-04-20T23:37:16.067Z,25.40
2019-04-20T23:39:41.486Z,24.33
2019-04-20T23:42:12.991Z,24.10
2019-04-20T23:44:53.037Z,24.43
2019-04-20T23:47:24.011Z,24.87
2019-04-20T23:50:14.068Z,24.90
2019-04-20T23:52:50.338Z,24.70
2019-04-20T23:55:04.120Z,25.60
2019-04-20T23:57:29.444Z,24.17
